Time;durP1;ratioP1;P1;durP2;ratioP2;P2;SDS_P1;SDS_P2;PMS_P1;PMS_P2;Temp;Humidity;BMP_temperature;BMP_pressure;BME280_temperature;BME280_humidity;BME280_pressure;Samples;Min_cycle;Max_cycle;Signal;HPM_P1;HPM_P2
2023/05/29 00:01:31;;;;;;;6.97;4.22;;;;;12.60;96432.00;;;;8260855;28;20324;-61
2023/05/29 00:05:36;;;;;;;10.65;3.97;;;;;12.60;96430.00;;;;8255519;28;20219;-65
2023/05/29 00:09:41;;;;;;;7.78;4.05;;;;;12.50;96438.00;;;;8258330;28;20306;-67
2023/05/29 00:13:44;;;;;;;12.02;4.20;;;;;12.70;96440.00;;;;8261134;28;20319;-63
2023/05/29 00:17:49;;;;;;;6.80;4.13;;;;;12.90;96440.00;;;;8263631;28;20211;-62
2023/05/29 00:21:56;;;;;;;6.90;3.88;;;;;13.20;96449.00;;;;8268215;28;20269;-68
2023/05/29 00:26:02;;;;;;;8.13;4.32;;;;;13.30;96448.00;;;;8260357;28;20373;-66
2023/05/29 00:30:09;;;;;;;10.82;5.00;;;;;13.40;96441.00;;;;8249532;28;20245;-63
2023/05/29 00:34:13;;;;;;;6.60;4.35;;;;;13.40;96440.00;;;;8243641;28;20340;-66
2023/05/29 00:38:17;;;;;;;7.68;4.20;;;;;13.40;96439.00;;;;8266839;28;20292;-63
2023/05/29 00:42:21;;;;;;;7.38;4.15;;;;;13.30;96440.00;;;;8266611;28;20311;-65
2023/05/29 00:46:24;;;;;;;8.38;4.30;;;;;13.30;96434.00;;;;8249721;28;20320;-65
2023/05/29 00:50:30;;;;;;;7.93;4.43;;;;;13.30;96434.00;;;;8237593;28;20215;-61
2023/05/29 00:54:35;;;;;;;9.13;4.50;;;;;13.30;96444.00;;;;8261528;28;20232;-65
2023/05/29 00:58:38;;;;;;;9.63;5.05;;;;;13.30;96443.00;;;;8263991;28;20251;-64
2023/05/29 01:02:44;;;;;;;5.50;4.13;;;;;13.40;96444.00;;;;8270112;28;20240;-64
2023/05/29 01:06:49;;;;;;;9.45;4.38;;;;;13.30;96449.00;;;;8251235;28;20259;-71
2023/05/29 01:10:58;;;;;;;8.38;4.35;;;;;13.10;96446.00;;;;8276488;28;20212;-69
2023/05/29 01:15:14;;;;;;;6.43;4.15;;;;;12.70;96447.00;;;;8248837;28;20301;-65
2023/05/29 01:19:31;;;;;;;8.48;4.00;;;;;12.40;96447.00;;;;8247957;28;20655;-63
2023/05/29 01:23:50;;;;;;;6.78;4.35;;;;;12.00;96438.00;;;;8250138;28;20232;-62
2023/05/29 01:28:00;;;;;;;6.97;4.03;;;;;11.70;96431.00;;;;8250894;28;20208;-63
2023/05/29 01:32:05;;;;;;;8.25;4.80;;;;;11.60;96430.00;;;;8249559;28;20209;-69
2023/05/29 01:36:12;;;;;;;10.17;4.43;;;;;11.80;96425.00;;;;8253902;28;20211;-63
2023/05/29 01:40:15;;;;;;;9.40;4.38;;;;;11.80;96426.00;;;;8261445;28;20314;-72
2023/05/29 01:44:25;;;;;;;14.15;5.15;;;;;11.70;96417.00;;;;8260727;28;20199;-71
2023/05/29 01:48:30;;;;;;;11.10;3.78;;;;;11.80;96420.00;;;;8258330;28;20587;-61
2023/05/29 01:52:33;;;;;;;9.52;4.07;;;;;12.00;96419.00;;;;8260083;28;20289;-68
2023/05/29 01:56:40;;;;;;;9.07;4.00;;;;;12.10;96418.00;;;;8260860;28;20215;-65
2023/05/29 02:00:52;;;;;;;9.32;4.20;;;;;12.30;96412.00;;;;8254401;28;21661;-67
2023/05/29 02:05:00;;;;;;;6.88;3.88;;;;;12.30;96413.00;;;;8264445;28;20235;-65
2023/05/29 02:09:08;;;;;;;6.60;3.63;;;;;12.30;96404.00;;;;8266250;28;20247;-69
2023/05/29 02:13:14;;;;;;;9.77;4.00;;;;;12.50;96405.00;;;;8263126;28;20210;-62
2023/05/29 02:17:19;;;;;;;8.85;4.10;;;;;12.60;96400.00;;;;8259163;28;20332;-67
2023/05/29 02:21:23;;;;;;;9.90;4.35;;;;;12.60;96393.00;;;;8262125;28;20464;-64
2023/05/29 02:25:29;;;;;;;11.48;4.07;;;;;12.60;96396.00;;;;8270727;28;20677;-68
2023/05/29 02:29:34;;;;;;;7.90;4.22;;;;;12.60;96396.00;;;;8259469;28;20289;-67
2023/05/29 02:33:39;;;;;;;7.70;4.03;;;;;12.70;96390.00;;;;8270228;28;20247;-69
2023/05/29 02:37:42;;;;;;;10.23;3.83;;;;;12.70;96394.00;;;;8271699;28;20290;-64
2023/05/29 02:41:45;;;;;;;7.80;4.53;;;;;12.50;96399.00;;;;8272702;28;20327;-62
2023/05/29 02:45:48;;;;;;;5.03;3.67;;;;;12.10;96394.00;;;;8270211;28;20292;-62
2023/05/29 02:49:53;;;;;;;10.60;4.50;;;;;11.70;96396.00;;;;8265489;28;20224;-70
2023/05/29 02:53:56;;;;;;;11.43;4.70;;;;;11.40;96395.00;;;;8263800;28;20228;-64
2023/05/29 02:58:06;;;;;;;8.57;4.60;;;;;11.20;96389.00;;;;8263753;28;20219;-67
2023/05/29 03:07:10;;;;;;;11.98;4.75;;;;;11.20;96387.00;;;;8251677;28;20206;-65
2023/05/29 03:11:15;;;;;;;10.65;4.20;;;;;11.10;96386.00;;;;8255971;28;20218;-68
2023/05/29 03:15:20;;;;;;;8.27;4.60;;;;;11.00;96386.00;;;;8255188;28;20761;-69
2023/05/29 03:19:28;;;;;;;6.80;4.22;;;;;10.80;96378.00;;;;8260620;28;20707;-61
2023/05/29 03:23:35;;;;;;;9.40;4.22;;;;;10.60;96376.00;;;;8254733;28;20738;-65
2023/05/29 03:27:39;;;;;;;10.07;4.40;;;;;10.40;96384.00;;;;8253145;28;20295;-65
2023/05/29 03:31:44;;;;;;;7.23;4.13;;;;;10.30;96388.00;;;;8254789;28;20200;-70
2023/05/29 03:35:47;;;;;;;7.60;4.67;;;;;10.20;96384.00;;;;8252360;28;20203;-64
2023/05/29 03:39:52;;;;;;;10.83;4.83;;;;;10.10;96392.00;;;;8254429;28;20203;-67
2023/05/29 03:43:57;;;;;;;9.83;4.50;;;;;10.00;96391.00;;;;8254011;28;20292;-62
2023/05/29 03:48:03;;;;;;;7.30;3.97;;;;;10.00;96395.00;;;;8253888;28;21049;-66
2023/05/29 03:52:07;;;;;;;10.10;4.60;;;;;10.00;96382.00;;;;8251459;28;20278;-69
2023/05/29 03:56:11;;;;;;;13.63;4.20;;;;;10.20;96385.00;;;;8251812;28;20572;-63
2023/05/29 04:00:16;;;;;;;8.50;5.03;;;;;10.50;96388.00;;;;8251269;28;20623;-68
2023/05/29 04:04:21;;;;;;;9.50;4.00;;;;;11.00;96390.00;;;;8230780;28;20243;-65
2023/05/29 04:08:25;;;;;;;7.40;4.30;;;;;11.60;96398.00;;;;8231995;28;20208;-69
2023/05/29 04:12:30;;;;;;;9.43;4.18;;;;;12.10;96403.00;;;;8233831;28;20235;-67
2023/05/29 04:16:33;;;;;;;9.20;4.00;;;;;12.50;96408.00;;;;8237620;28;20316;-65
2023/05/29 04:20:39;;;;;;;5.05;4.00;;;;;13.00;96413.00;;;;8225159;28;20216;-66
2023/05/29 04:24:45;;;;;;;8.73;3.70;;;;;13.30;96417.00;;;;8242405;28;20240;-64
2023/05/29 04:28:57;;;;;;;10.25;4.47;;;;;13.70;96417.00;;;;8228426;28;20209;-61
2023/05/29 04:33:00;;;;;;;10.88;4.63;;;;;14.00;96425.00;;;;8230310;28;20627;-72
2023/05/29 04:37:13;;;;;;;6.40;3.83;;;;;14.30;96430.00;;;;8234910;28;20537;-69
2023/05/29 04:41:16;;;;;;;8.60;4.53;;;;;14.70;96433.00;;;;8235915;28;20604;-65
2023/05/29 04:45:25;;;;;;;6.72;3.70;;;;;15.00;96441.00;;;;8231477;28;20286;-73
2023/05/29 04:49:30;;;;;;;9.13;4.53;;;;;15.30;96439.00;;;;8236692;28;20218;-63
2023/05/29 04:53:35;;;;;;;7.45;4.00;;;;;15.50;96449.00;;;;8235188;28;20237;-71
2023/05/29 04:57:41;;;;;;;8.68;4.30;;;;;15.80;96449.00;;;;8233175;28;20318;-65
2023/05/29 05:01:50;;;;;;;10.85;4.20;;;;;16.10;96449.00;;;;8229982;28;20318;-72
2023/05/29 05:05:54;;;;;;;8.35;4.28;;;;;16.30;96459.00;;;;8237951;28;20696;-72
2023/05/29 05:09:57;;;;;;;8.43;3.97;;;;;16.50;96468.00;;;;8244110;28;20202;-65
2023/05/29 05:14:01;;;;;;;10.88;3.95;;;;;16.70;96468.00;;;;8238590;28;20203;-65
2023/05/29 05:18:05;;;;;;;7.43;3.58;;;;;16.80;96476.00;;;;8239254;28;20282;-64
2023/05/29 05:22:08;;;;;;;8.38;3.90;;;;;16.80;96489.00;;;;8234651;28;20278;-64
2023/05/29 05:26:22;;;;;;;6.47;3.45;;;;;16.80;96486.00;;;;8248751;28;20575;-66
2023/05/29 05:30:25;;;;;;;7.82;3.63;;;;;16.80;96488.00;;;;8252264;28;20234;-66
2023/05/29 05:34:31;;;;;;;4.90;3.50;;;;;16.80;96488.00;;;;8245429;28;20235;-66
2023/05/29 05:38:36;;;;;;;9.20;3.72;;;;;16.70;96475.00;;;;8251440;28;20301;-65
2023/05/29 05:42:40;;;;;;;8.10;3.58;;;;;16.80;96494.00;;;;8241868;28;20239;-72
2023/05/29 05:46:45;;;;;;;8.02;4.00;;;;;16.90;96489.00;;;;8236684;28;20259;-66
2023/05/29 05:50:50;;;;;;;7.43;4.05;;;;;17.00;96490.00;;;;8252671;28;20202;-65
2023/05/29 05:54:54;;;;;;;8.25;3.88;;;;;17.30;96502.00;;;;8255409;28;20297;-74
2023/05/29 05:58:57;;;;;;;7.22;3.67;;;;;17.50;96504.00;;;;8240249;28;20206;-64
2023/05/29 06:03:04;;;;;;;8.23;3.95;;;;;17.70;96506.00;;;;8248715;28;20239;-63
2023/05/29 06:07:09;;;;;;;5.30;3.63;;;;;17.90;96510.00;;;;8255352;28;20210;-68
2023/05/29 06:11:12;;;;;;;9.43;3.33;;;;;18.20;96519.00;;;;8251517;28;20211;-67
2023/05/29 06:15:23;;;;;;;6.75;3.90;;;;;18.20;96517.00;;;;8249675;28;20200;-64
2023/05/29 06:19:31;;;;;;;5.05;3.30;;;;;18.10;96514.00;;;;8253510;28;20286;-67
2023/05/29 06:23:37;;;;;;;7.68;3.92;;;;;18.10;96511.00;;;;8254082;28;20317;-68
2023/05/29 06:27:40;;;;;;;5.65;3.40;;;;;18.50;96526.00;;;;8249078;28;20234;-73
2023/05/29 06:31:43;;;;;;;8.73;3.65;;;;;18.90;96524.00;;;;8240327;28;20298;-67
2023/05/29 06:35:52;;;;;;;5.88;3.47;;;;;19.20;96531.00;;;;8262733;28;20206;-67
2023/05/29 06:39:57;;;;;;;9.35;4.00;;;;;19.60;96540.00;;;;8254433;28;20309;-65
2023/05/29 06:44:00;;;;;;;6.53;3.60;;;;;19.80;96538.00;;;;8243033;28;20238;-71
2023/05/29 06:48:03;;;;;;;5.45;3.85;;;;;20.00;96531.00;;;;8241443;28;20668;-66
2023/05/29 06:52:07;;;;;;;4.63;3.75;;;;;20.10;96544.00;;;;8236314;28;20254;-66
2023/05/29 06:56:15;;;;;;;7.60;4.22;;;;;20.30;96545.00;;;;8238976;28;20675;-66
2023/05/29 07:00:19;;;;;;;7.25;3.63;;;;;20.60;96540.00;;;;8235855;28;20242;-65
2023/05/29 07:04:25;;;;;;;7.28;3.47;;;;;20.70;96552.00;;;;8237300;28;20327;-64
2023/05/29 07:08:28;;;;;;;7.13;3.88;;;;;20.90;96558.00;;;;8238088;28;20391;-66
2023/05/29 07:12:34;;;;;;;5.15;3.20;;;;;21.10;96552.00;;;;8239420;28;20203;-62
2023/05/29 07:16:56;;;;;;;13.48;4.07;;;;;21.30;96554.00;;;;8237734;28;20199;-63
2023/05/29 07:21:01;;;;;;;8.63;4.10;;;;;21.50;96560.00;;;;8235706;28;20656;-65
2023/05/29 07:25:05;;;;;;;7.63;4.10;;;;;21.60;96562.00;;;;8233815;28;20226;-72
2023/05/29 07:29:10;;;;;;;7.15;3.55;;;;;21.70;96558.00;;;;8238059;28;20203;-62
2023/05/29 07:33:13;;;;;;;11.05;5.25;;;;;21.80;96560.00;;;;8233912;28;20215;-66
2023/05/29 07:37:18;;;;;;;11.63;4.45;;;;;22.20;96561.00;;;;8233651;28;20203;-68
2023/05/29 07:41:23;;;;;;;12.32;5.13;;;;;22.20;96560.00;;;;8236281;28;20237;-69
2023/05/29 07:45:32;;;;;;;9.80;4.55;;;;;22.30;96572.00;;;;8230112;28;20234;-66
2023/05/29 07:49:36;;;;;;;5.18;3.38;;;;;22.40;96560.00;;;;8231736;28;20319;-69
2023/05/29 07:53:39;;;;;;;6.40;3.53;;;;;22.80;96569.00;;;;8234208;28;20211;-68
2023/05/29 07:57:43;;;;;;;6.57;3.60;;;;;23.50;96561.00;;;;8230771;28;20207;-64
2023/05/29 08:02:00;;;;;;;7.93;3.45;;;;;23.80;96562.00;;;;8234342;28;20208;-68
2023/05/29 08:06:11;;;;;;;7.20;3.60;;;;;24.10;96561.00;;;;8236967;28;20241;-75
2023/05/29 08:10:14;;;;;;;5.75;3.20;;;;;24.20;96568.00;;;;8245570;28;21030;-63
2023/05/29 08:14:18;;;;;;;8.93;3.63;;;;;24.50;96562.00;;;;8216311;28;20659;-66
2023/05/29 08:18:22;;;;;;;5.50;3.78;;;;;24.90;96563.00;;;;8240558;28;20241;-72
2023/05/29 08:22:30;;;;;;;6.25;3.40;;;;;25.00;96569.00;;;;8253218;28;20286;-64
2023/05/29 08:26:36;;;;;;;7.32;3.40;;;;;25.20;96565.00;;;;8240508;28;20214;-70
2023/05/29 08:30:44;;;;;;;8.68;3.58;;;;;25.30;96564.00;;;;8239852;28;20203;-62
2023/05/29 08:34:49;;;;;;;6.13;3.53;;;;;25.40;96557.00;;;;8236457;28;20234;-64
2023/05/29 08:38:53;;;;;;;7.80;3.58;;;;;25.30;96562.00;;;;8231293;28;20229;-61
2023/05/29 08:43:03;;;;;;;10.93;3.30;;;;;25.40;96562.00;;;;8232190;28;20472;-61
2023/05/29 08:47:14;;;;;;;5.72;3.95;;;;;25.70;96571.00;;;;8227033;28;20211;-62
2023/05/29 08:51:21;;;;;;;5.22;3.30;;;;;26.30;96558.00;;;;8231646;28;20290;-60
2023/05/29 08:55:24;;;;;;;4.72;3.50;;;;;26.00;96571.00;;;;8226939;28;20605;-62
2023/05/29 08:59:28;;;;;;;6.07;3.40;;;;;26.10;96572.00;;;;8231733;28;20714;-63
2023/05/29 09:03:41;;;;;;;5.22;3.38;;;;;26.20;96576.00;;;;8234005;28;20237;-64
2023/05/29 09:07:49;;;;;;;4.45;3.17;;;;;26.20;96571.00;;;;8233727;28;20286;-63
2023/05/29 09:11:53;;;;;;;5.00;3.40;;;;;26.40;96569.00;;;;8233040;28;20207;-60
2023/05/29 09:15:58;;;;;;;7.57;3.53;;;;;26.70;96576.00;;;;8230485;28;20300;-62
2023/05/29 09:20:05;;;;;;;4.43;3.33;;;;;27.10;96580.00;;;;8228930;28;20211;-65
2023/05/29 09:24:09;;;;;;;6.05;3.17;;;;;26.90;96576.00;;;;8238103;28;20234;-63
2023/05/29 09:28:15;;;;;;;3.95;3.40;;;;;27.10;96578.00;;;;8223781;28;20291;-63
2023/05/29 09:32:19;;;;;;;4.05;3.00;;;;;27.80;96571.00;;;;8238369;28;20743;-65
2023/05/29 09:36:23;;;;;;;5.15;2.80;;;;;28.00;96564.00;;;;8232461;28;20204;-63
2023/05/29 09:40:30;;;;;;;5.85;2.85;;;;;28.70;96574.00;;;;8232810;28;20207;-63
2023/05/29 09:44:34;;;;;;;4.35;2.90;;;;;29.70;96574.00;;;;8229543;28;20237;-59
2023/05/29 09:48:37;;;;;;;4.38;3.10;;;;;29.70;96571.00;;;;8227724;28;20290;-60
2023/05/29 09:52:52;;;;;;;6.80;3.38;;;;;29.20;96578.00;;;;8233196;28;20250;-65
2023/05/29 09:57:01;;;;;;;6.35;3.30;;;;;28.70;96578.00;;;;8232910;28;20212;-61
2023/05/29 10:01:04;;;;;;;5.10;3.38;;;;;29.00;96581.00;;;;8241923;28;20242;-63
2023/05/29 10:05:15;;;;;;;3.75;2.75;;;;;30.10;96585.00;;;;8232843;28;20235;-63
2023/05/29 10:09:23;;;;;;;5.22;3.47;;;;;30.40;96594.00;;;;8231763;28;20288;-63
2023/05/29 10:13:32;;;;;;;5.65;2.97;;;;;30.40;96592.00;;;;8230693;28;20199;-62
2023/05/29 10:17:37;;;;;;;3.22;2.92;;;;;31.00;96582.00;;;;8236378;28;20211;-61
2023/05/29 10:21:42;;;;;;;5.32;3.03;;;;;31.40;96578.00;;;;8237582;28;20217;-61
2023/05/29 10:25:48;;;;;;;3.65;2.78;;;;;31.00;96576.00;;;;8239090;28;20242;-63
2023/05/29 10:30:01;;;;;;;3.55;3.00;;;;;30.60;96569.00;;;;8231229;28;20216;-62
2023/05/29 10:34:16;;;;;;;3.20;2.90;;;;;30.50;96570.00;;;;8231749;28;20241;-63
2023/05/29 10:38:21;;;;;;;4.50;2.88;;;;;30.30;96565.00;;;;8235526;28;20203;-63
2023/05/29 10:42:45;;;;;;;6.70;3.95;;;;;30.50;96560.00;;;;8214041;28;20565;-62
2023/05/29 10:47:06;;;;;;;5.72;3.00;;;;;31.00;96560.00;;;;8230828;28;20226;-65
2023/05/29 10:51:24;;;;;;;3.53;2.58;;;;;30.80;96564.00;;;;8228426;28;20208;-64
2023/05/29 10:55:35;;;;;;;2.83;2.63;;;;;30.30;96574.00;;;;8231769;28;20265;-61
2023/05/29 10:59:41;;;;;;;4.53;3.05;;;;;30.10;96574.00;;;;8228456;28;20211;-62
2023/05/29 11:03:52;;;;;;;5.55;3.03;;;;;29.80;96558.00;;;;8240855;28;20298;-62
2023/05/29 11:08:00;;;;;;;3.58;2.83;;;;;30.30;96560.00;;;;8236914;28;20242;-60
2023/05/29 11:12:25;;;;;;;3.72;2.45;;;;;30.10;96566.00;;;;8244869;28;20289;-65
2023/05/29 11:16:43;;;;;;;4.68;2.83;;;;;30.20;96554.00;;;;8238250;28;20625;-63
2023/05/29 11:20:55;;;;;;;3.88;2.90;;;;;30.50;96555.00;;;;8229729;28;20216;-62
2023/05/29 11:25:01;;;;;;;5.57;2.95;;;;;30.20;96561.00;;;;8232791;28;20239;-63
2023/05/29 11:29:06;;;;;;;3.17;2.50;;;;;30.00;96562.00;;;;8230908;28;20206;-61
2023/05/29 11:33:12;;;;;;;4.30;2.83;;;;;30.40;96552.00;;;;8228335;28;20210;-63
2023/05/29 11:37:17;;;;;;;4.78;3.05;;;;;31.00;96556.00;;;;8228979;28;20215;-59
2023/05/29 11:41:22;;;;;;;5.40;2.83;;;;;30.50;96560.00;;;;8234536;28;20274;-61
2023/05/29 11:45:25;;;;;;;5.90;2.53;;;;;30.00;96559.00;;;;8231849;28;20235;-64
2023/05/29 11:49:30;;;;;;;2.90;2.67;;;;;30.20;96549.00;;;;8221388;28;20236;-60
2023/05/29 11:53:37;;;;;;;4.63;3.00;;;;;30.80;96552.00;;;;8233889;28;20231;-63
2023/05/29 11:57:43;;;;;;;4.63;3.00;;;;;31.30;96554.00;;;;8233892;28;20208;-66
2023/05/29 12:01:47;;;;;;;6.03;2.70;;;;;31.20;96556.00;;;;8229686;28;20580;-66
2023/05/29 12:05:55;;;;;;;4.78;3.08;;;;;30.90;96555.00;;;;8230533;28;20231;-64
2023/05/29 12:10:10;;;;;;;5.18;3.00;;;;;31.10;96548.00;;;;8212294;28;20227;-63
2023/05/29 12:14:14;;;;;;;3.70;2.60;;;;;31.60;96550.00;;;;8223806;28;20294;-63
2023/05/29 12:18:18;;;;;;;3.20;2.70;;;;;31.40;96548.00;;;;8221772;28;20208;-63
2023/05/29 12:22:33;;;;;;;4.22;2.50;;;;;31.10;96558.00;;;;8236387;28;20217;-64
2023/05/29 12:26:47;;;;;;;3.47;2.70;;;;;30.60;96555.00;;;;8239739;28;20284;-63
2023/05/29 12:30:51;;;;;;;3.47;2.95;;;;;30.00;96559.00;;;;8232876;28;20230;-64
2023/05/29 12:34:56;;;;;;;4.18;2.83;;;;;29.80;96556.00;;;;8226139;28;20217;-64
2023/05/29 12:39:08;;;;;;;4.00;2.25;;;;;29.50;96548.00;;;;8227639;28;20298;-61
2023/05/29 12:43:13;;;;;;;3.90;2.42;;;;;28.70;96556.00;;;;8229286;28;20637;-64
2023/05/29 12:47:26;;;;;;;3.90;2.97;;;;;28.10;96565.00;;;;8225869;28;20836;-64
2023/05/29 12:51:31;;;;;;;6.95;2.72;;;;;27.60;96552.00;;;;8230657;28;20221;-64
2023/05/29 12:55:36;;;;;;;4.95;2.65;;;;;27.40;96555.00;;;;8234906;28;20625;-62
2023/05/29 12:59:42;;;;;;;4.78;2.72;;;;;27.30;96540.00;;;;8230981;28;20214;-62
2023/05/29 13:03:45;;;;;;;3.47;2.60;;;;;27.50;96539.00;;;;8236291;28;20245;-63
2023/05/29 13:07:52;;;;;;;6.68;2.90;;;;;27.70;96542.00;;;;8230149;28;20239;-62
2023/05/29 13:11:55;;;;;;;3.13;2.78;;;;;28.00;96541.00;;;;8235059;28;20214;-62
2023/05/29 13:16:01;;;;;;;3.08;2.47;;;;;28.40;96540.00;;;;8242395;28;20206;-63
2023/05/29 13:20:08;;;;;;;4.10;2.65;;;;;29.00;96543.00;;;;8232279;28;20250;-65
2023/05/29 13:24:11;;;;;;;4.15;2.70;;;;;29.40;96541.00;;;;8223690;28;20242;-64
2023/05/29 13:28:14;;;;;;;4.63;2.70;;;;;29.80;96528.00;;;;8224440;28;20865;-64
2023/05/29 13:32:19;;;;;;;12.73;2.90;;;;;30.20;96517.00;;;;8232659;28;20202;-62
2023/05/29 13:36:25;;;;;;;7.18;2.50;;;;;30.70;96535.00;;;;8231511;28;20200;-64
2023/05/29 13:40:29;;;;;;;2.67;2.33;;;;;30.40;96533.00;;;;8237877;28;20651;-63
2023/05/29 13:44:34;;;;;;;7.70;3.58;;;;;30.10;96522.00;;;;8233255;28;20207;-61
2023/05/29 13:48:49;;;;;;;5.13;2.47;;;;;30.70;96523.00;;;;8236653;28;20672;-63
2023/05/29 13:52:53;;;;;;;3.28;2.33;;;;;30.80;96528.00;;;;8242968;28;20198;-63
2023/05/29 13:57:00;;;;;;;2.72;2.50;;;;;30.70;96519.00;;;;8234247;28;20254;-60
2023/05/29 14:01:06;;;;;;;3.42;2.72;;;;;31.20;96519.00;;;;8215882;28;20204;-64
2023/05/29 14:05:13;;;;;;;3.80;2.53;;;;;31.50;96506.00;;;;8236084;28;20706;-61
2023/05/29 14:09:22;;;;;;;4.15;2.75;;;;;32.00;96509.00;;;;8231134;28;20577;-61
2023/05/29 14:13:26;;;;;;;2.33;2.13;;;;;31.40;96512.00;;;;8238171;28;20783;-62
2023/05/29 14:17:32;;;;;;;2.70;2.50;;;;;31.40;96509.00;;;;8233966;28;20907;-61
2023/05/29 14:21:37;;;;;;;5.88;2.47;;;;;31.20;96509.00;;;;8231657;28;20205;-61
2023/05/29 14:25:48;;;;;;;2.95;2.60;;;;;31.20;96505.00;;;;8228309;28;20286;-65
2023/05/29 14:29:51;;;;;;;6.30;2.40;;;;;31.30;96511.00;;;;8230254;28;20754;-63
2023/05/29 14:33:58;;;;;;;2.83;2.55;;;;;31.40;96504.00;;;;8234701;28;20625;-61
2023/05/29 14:38:05;;;;;;;3.45;2.33;;;;;32.10;96496.00;;;;8232748;28;20214;-63
2023/05/29 14:42:09;;;;;;;5.88;2.55;;;;;32.50;96499.00;;;;8226246;28;20208;-61
2023/05/29 14:46:16;;;;;;;3.55;2.30;;;;;32.90;96492.00;;;;8230166;28;20296;-63
2023/05/29 14:50:21;;;;;;;2.90;2.60;;;;;32.40;96501.00;;;;8219040;28;20658;-64
2023/05/29 14:54:28;;;;;;;3.33;2.15;;;;;32.10;96495.00;;;;8231494;28;20238;-62
2023/05/29 14:58:33;;;;;;;3.92;2.67;;;;;31.90;96487.00;;;;8229809;28;20549;-63
2023/05/29 15:02:39;;;;;;;3.58;2.53;;;;;32.20;96487.00;;;;8227576;28;20231;-62
2023/05/29 15:06:45;;;;;;;4.45;2.72;;;;;32.70;96483.00;;;;8229581;28;20819;-62
2023/05/29 15:10:59;;;;;;;4.57;2.50;;;;;33.20;96480.00;;;;8234659;28;20271;-62
2023/05/29 15:15:03;;;;;;;5.70;2.97;;;;;33.30;96480.00;;;;8214088;28;20203;-63
2023/05/29 15:19:07;;;;;;;2.83;2.63;;;;;33.20;96477.00;;;;8234884;28;20553;-62
2023/05/29 15:23:10;;;;;;;3.95;2.22;;;;;33.10;96470.00;;;;8236126;28;20208;-63
2023/05/29 15:27:15;;;;;;;4.72;2.50;;;;;32.80;96473.00;;;;8232604;28;20293;-64
2023/05/29 15:31:22;;;;;;;4.82;2.45;;;;;32.90;96475.00;;;;8231920;28;20212;-62
2023/05/29 15:35:26;;;;;;;6.10;2.80;;;;;33.10;96473.00;;;;8234143;28;20199;-65
2023/05/29 15:39:30;;;;;;;3.38;2.50;;;;;32.70;96469.00;;;;8235982;28;20218;-66
2023/05/29 15:43:37;;;;;;;3.15;2.75;;;;;32.10;96462.00;;;;8235897;28;20208;-63
2023/05/29 15:47:43;;;;;;;3.15;2.80;;;;;32.30;96462.00;;;;8231546;28;20218;-62
2023/05/29 15:51:52;;;;;;;5.70;2.78;;;;;32.30;96461.00;;;;8230556;28;20207;-60
2023/05/29 15:55:59;;;;;;;4.40;2.95;;;;;32.10;96459.00;;;;8233232;28;20781;-61
2023/05/29 16:00:11;;;;;;;3.28;2.70;;;;;31.80;96453.00;;;;8217502;28;20269;-61
2023/05/29 16:04:14;;;;;;;3.60;2.90;;;;;31.60;96454.00;;;;8229339;28;20239;-62
2023/05/29 16:08:20;;;;;;;3.90;3.38;;;;;31.60;96460.00;;;;8226791;28;20231;-63
2023/05/29 16:12:28;;;;;;;2.97;2.78;;;;;31.20;96459.00;;;;8213193;28;20211;-62
2023/05/29 16:16:33;;;;;;;3.70;3.25;;;;;30.80;96461.00;;;;8228411;28;20215;-62
2023/05/29 16:20:39;;;;;;;7.38;2.92;;;;;30.70;96463.00;;;;8240334;28;20285;-62
2023/05/29 16:24:44;;;;;;;7.85;3.35;;;;;30.70;96459.00;;;;8231762;28;20207;-61
2023/05/29 16:28:48;;;;;;;4.28;3.03;;;;;30.70;96462.00;;;;8225370;28;20278;-64
2023/05/29 16:32:57;;;;;;;5.20;3.15;;;;;30.70;96449.00;;;;8224566;28;20204;-63
2023/05/29 16:37:00;;;;;;;3.72;3.33;;;;;30.80;96454.00;;;;8236153;28;20293;-63
2023/05/29 16:41:04;;;;;;;7.97;3.28;;;;;30.70;96455.00;;;;8229549;28;20199;-61
2023/05/29 16:45:09;;;;;;;5.55;3.30;;;;;30.70;96459.00;;;;8233159;28;21948;-63
2023/05/29 16:49:16;;;;;;;3.83;3.35;;;;;30.50;96460.00;;;;8234331;28;20237;-63
2023/05/29 16:53:19;;;;;;;4.72;3.30;;;;;30.10;96452.00;;;;8231344;28;20210;-63
2023/05/29 16:57:22;;;;;;;5.22;3.35;;;;;30.10;96456.00;;;;8231521;28;20204;-65
2023/05/29 17:01:28;;;;;;;4.35;3.15;;;;;30.20;96462.00;;;;8238194;28;20211;-61
2023/05/29 17:07:42;;;;;;;3.97;3.47;;;;;30.40;96458.00;;;;8402473;27;20796;-64
2023/05/29 17:11:48;;;;;;;4.45;3.45;;;;;30.30;96463.00;;;;8398141;28;20235;-61
2023/05/29 17:15:52;;;;;;;4.53;3.10;;;;;30.20;96463.00;;;;8399944;28;20222;-61
2023/05/29 17:19:55;;;;;;;3.60;3.20;;;;;30.20;96469.00;;;;8410832;28;20206;-66
2023/05/29 17:24:00;;;;;;;6.45;2.70;;;;;30.20;96471.00;;;;8407309;28;20290;-62
2023/05/29 17:28:03;;;;;;;4.75;3.40;;;;;30.10;96470.00;;;;8406053;28;20210;-62
2023/05/29 17:32:09;;;;;;;3.90;3.20;;;;;30.10;96483.00;;;;8404268;28;20219;-65
2023/05/29 17:36:15;;;;;;;3.50;3.20;;;;;30.20;96468.00;;;;8405416;28;20200;-61
2023/05/29 17:40:22;;;;;;;3.35;3.05;;;;;29.80;96470.00;;;;8402875;28;20664;-61
2023/05/29 17:44:27;;;;;;;4.60;3.28;;;;;29.70;96474.00;;;;8407460;28;20227;-61
2023/05/29 17:48:36;;;;;;;6.53;3.58;;;;;29.40;96468.00;;;;8397738;28;20198;-63
2023/05/29 17:52:40;;;;;;;4.75;3.33;;;;;28.90;96473.00;;;;8404374;28;20669;-63
2023/05/29 17:56:45;;;;;;;3.38;3.00;;;;;28.10;96469.00;;;;8401678;28;20735;-63
2023/05/29 18:00:48;;;;;;;7.53;3.33;;;;;27.20;96471.00;;;;8400176;28;20788;-64
2023/05/29 18:04:52;;;;;;;4.25;3.38;;;;;26.40;96475.00;;;;8405918;28;20622;-63
2023/05/29 18:08:59;;;;;;;7.57;3.55;;;;;25.80;96478.00;;;;8401309;28;20708;-61
2023/05/29 18:13:08;;;;;;;4.03;3.03;;;;;25.20;96479.00;;;;8398502;28;20301;-61
2023/05/29 18:17:13;;;;;;;8.20;3.22;;;;;24.80;96468.00;;;;8392138;28;20230;-64
2023/05/29 18:21:16;;;;;;;5.95;3.58;;;;;24.40;96473.00;;;;8380192;28;20214;-63
2023/05/29 18:25:19;;;;;;;5.90;3.03;;;;;24.00;96485.00;;;;8361097;28;20236;-61
2023/05/29 18:29:24;;;;;;;3.30;2.92;;;;;23.70;96477.00;;;;8373947;28;20207;-61
2023/05/29 18:33:28;;;;;;;3.92;3.35;;;;;23.30;96477.00;;;;8365491;28;20255;-61
2023/05/29 18:37:32;;;;;;;4.30;3.28;;;;;23.00;96476.00;;;;8379787;28;20196;-61
2023/05/29 18:41:35;;;;;;;6.47;3.47;;;;;22.60;96490.00;;;;8371451;28;20188;-62
2023/05/29 18:45:40;;;;;;;8.13;3.35;;;;;22.20;96483.00;;;;8374550;28;20286;-62
2023/05/29 18:49:44;;;;;;;6.28;3.08;;;;;21.70;96484.00;;;;8376399;28;20200;-63
2023/05/29 18:53:47;;;;;;;4.50;3.03;;;;;21.40;96480.00;;;;8381005;28;20648;-64
2023/05/29 18:57:51;;;;;;;5.85;2.95;;;;;21.00;96498.00;;;;8372604;28;20228;-63
2023/05/29 19:01:56;;;;;;;4.90;3.33;;;;;20.70;96493.00;;;;8371416;28;20204;-64
2023/05/29 19:06:03;;;;;;;5.28;3.10;;;;;20.60;96496.00;;;;8365250;28;20240;-63
2023/05/29 19:10:08;;;;;;;7.43;3.10;;;;;20.40;96494.00;;;;8364968;28;20196;-63
2023/05/29 19:14:13;;;;;;;7.57;3.10;;;;;20.20;96496.00;;;;8365536;28;20201;-61
2023/05/29 19:18:24;;;;;;;4.57;2.90;;;;;19.90;96498.00;;;;8364199;28;20196;-63
2023/05/29 19:22:29;;;;;;;5.75;2.78;;;;;19.50;96498.00;;;;8365848;28;20197;-62
2023/05/29 19:26:35;;;;;;;3.30;2.63;;;;;19.20;96498.00;;;;8364713;28;20224;-62
2023/05/29 19:30:39;;;;;;;4.15;3.30;;;;;18.80;96505.00;;;;8363374;28;20231;-62
2023/05/29 19:34:44;;;;;;;4.93;2.80;;;;;18.50;96516.00;;;;8364229;28;20211;-63
2023/05/29 19:38:47;;;;;;;5.90;2.88;;;;;18.30;96515.00;;;;8363529;28;20205;-63
2023/05/29 19:42:51;;;;;;;10.57;4.05;;;;;18.10;96523.00;;;;8363515;28;20201;-62
2023/05/29 19:46:58;;;;;;;5.95;2.83;;;;;17.90;96534.00;;;;8365061;28;20647;-61
2023/05/29 19:51:07;;;;;;;5.30;3.13;;;;;17.70;96532.00;;;;8364806;28;20566;-62
2023/05/29 19:55:10;;;;;;;4.60;3.03;;;;;17.40;96538.00;;;;8361892;28;20204;-61
2023/05/29 19:59:16;;;;;;;6.57;3.50;;;;;17.20;96549.00;;;;8363199;28;20600;-60
2023/05/29 20:03:20;;;;;;;4.70;3.15;;;;;17.10;96551.00;;;;8362642;28;20239;-62
2023/05/29 20:07:30;;;;;;;5.28;3.42;;;;;16.90;96546.00;;;;8380113;28;20224;-62
2023/05/29 20:11:40;;;;;;;4.88;2.92;;;;;16.70;96559.00;;;;8382824;28;20672;-64
2023/05/29 20:15:44;;;;;;;6.97;3.28;;;;;16.80;96565.00;;;;8377112;28;20204;-62
2023/05/29 20:19:49;;;;;;;5.95;2.80;;;;;17.20;96571.00;;;;8382025;28;20196;-62
2023/05/29 20:23:55;;;;;;;6.45;3.13;;;;;17.60;96568.00;;;;8380620;28;20200;-61
2023/05/29 20:27:59;;;;;;;5.05;2.63;;;;;17.80;96571.00;;;;8378186;28;20569;-63
2023/05/29 20:32:02;;;;;;;6.65;3.50;;;;;17.70;96577.00;;;;8384573;28;20547;-62
2023/05/29 20:36:08;;;;;;;5.22;3.30;;;;;17.70;96575.00;;;;8377677;28;20200;-61